Monterrey, Mexico

9:16 AM EST on February 14, 2016 (GMT -0500)
APRSWXNET | | Change Station
CLOSE
Current Station
Personal Weather Station
Location: Monterrey,
Elevation: 1965 ft
Nearby Weather Stations

Elev 1965 ft 25.72 °N, 100.37 °W | Updated 31 minutes ago

Partly Cloudy
Partly Cloudy
54 °F
Feels Like 54 °F
N
0
Wind Variable Wind from NNW
Gusts 0.0 mph

Today
High -- | Low -- °F
--% Chance of Precip.
Yesterday
High -- | Low -- °F
Precip. -- in
Pressure 30.04 in
Visibility 8.0 miles
Clouds Few 1200 ft
Dew Point 49 °F
Humidity 82%
Rainfall in
Snow Depth Not available.
8:17 AM 7:33 PM
Waxing Crescent, 42% visible
SPECI MMAN 141413Z 29008KT 8SM FEW012 12/10 A3004 RMK 8/500 HZY
Pressure 30.04 in
Visibility 8.0 miles
Clouds Few 1200 ft
Dew Point 49 °F
Humidity 82%
Rainfall in
Snow Depth Not available.
8:17 AM 7:33 PM
Waxing Crescent, 42% visible
SPECI MMAN 141413Z 29008KT 8SM FEW012 12/10 A3004 RMK 8/500 HZY

10-Day Weather Forecast

No radar image for this location.
×

Almanac

Astronomy

Feb. 14, 2016 Rise Set
Actual Time
Civil Twilight
Nautical Twilight
Astronomical Twilight
Moon
Length of Visible Light
Length of Day
Tomorrow will be .
, % of the Moon is Illuminated

Today's Extremes

Country Highs Country Lows

Community

WunderPhotos

Upload Photos

1,892,797 photos uploaded!

WunderBlog® & News

Nearby

Air Quality

  Air Quality AQ Index Pollutant
Not available.

Snow Depth

Station Depth Elevation

Earthquake Activity

City Distance Mag. Time & Date
Minimum magnitude displayed is 2.5.

Coastal Water Temperatures

Place Temperature

Stations

Nearby Weather Stations

Station Location Temp. Windchill Dew Point Humidity Wind Precip. Elev Updated Type